Time;durP1;ratioP1;P1;durP2;ratioP2;P2;SDS_P1;SDS_P2;PMS_P1;PMS_P2;Temp;Humidity;BMP_temperature;BMP_pressure;BME280_temperature;BME280_humidity;BME280_pressure;Samples;Min_cycle;Max_cycle;Signal;HPM_P1;HPM_P2
2022/10/29 00:00:43;;;;;;;15.70;4.00;;;12.00;99.90;;;;;;5072004;28;20072;-51
2022/10/29 00:03:10;;;;;;;;;;;12.00;99.90;;;;;;5054585;28;20654;-51
2022/10/29 00:05:36;;;;;;;9.73;3.65;;;12.00;99.90;;;;;;5068363;28;19920;-51
2022/10/29 00:08:03;;;;;;;7.22;3.13;;;11.90;99.90;;;;;;5050236;28;20113;-52
2022/10/29 00:10:30;;;;;;;12.60;4.05;;;11.90;99.90;;;;;;5071853;28;20068;-51
2022/10/29 00:13:03;;;;;;;9.60;2.88;;;11.80;99.90;;;;;;5070515;28;20090;-51
2022/10/29 00:15:30;;;;;;;8.88;3.38;;;12.20;99.90;;;;;;5071303;28;20053;-52
2022/10/29 00:17:57;;;;;;;11.38;3.22;;;11.80;99.90;;;;;;5070915;28;20059;-51
2022/10/29 00:20:24;;;;;;;;;;;11.70;99.90;;;;;;5072388;28;20056;-50
2022/10/29 00:22:53;;;;;;;8.68;3.05;;;11.70;99.90;;;;;;5069274;28;20388;-51
2022/10/29 00:25:21;;;;;;;10.93;3.47;;;11.70;99.90;;;;;;5053614;28;20040;-52
2022/10/29 00:27:47;;;;;;;15.15;3.80;;;11.70;99.90;;;;;;5071822;28;20079;-50
2022/10/29 00:30:14;;;;;;;6.10;2.97;;;11.80;99.90;;;;;;5069520;28;20505;-50
2022/10/29 00:32:41;;;;;;;6.88;3.60;;;11.80;99.90;;;;;;5071290;28;20047;-51
2022/10/29 00:35:08;;;;;;;9.10;3.40;;;11.80;99.90;;;;;;5064795;28;20076;-54
2022/10/29 00:37:35;;;;;;;11.02;3.42;;;11.80;99.90;;;;;;5071789;28;20437;-51
2022/10/29 00:40:03;;;;;;;9.32;3.38;;;11.80;99.90;;;;;;5066604;28;20072;-52
2022/10/29 00:42:29;;;;;;;8.02;3.20;;;11.80;99.90;;;;;;5070887;28;20040;-50
2022/10/29 00:44:56;;;;;;;10.15;3.08;;;11.80;99.90;;;;;;5070323;28;20075;-52
2022/10/29 00:47:26;;;;;;;10.10;2.83;;;11.80;99.90;;;;;;5071440;28;20071;-51
2022/10/29 00:50:01;;;;;;;9.15;2.92;;;11.70;99.90;;;;;;5061432;28;20080;-51
2022/10/29 00:52:31;;;;;;;9.85;3.45;;;11.80;99.90;;;;;;5051094;28;20087;-51
2022/10/29 00:55:02;;;;;;;8.10;3.78;;;11.80;99.90;;;;;;5050769;28;20087;-51
2022/10/29 00:57:55;;;;;;;9.68;3.35;;;11.70;99.90;;;;;;5051447;28;20048;-51
2022/10/29 01:00:23;;;;;;;10.90;3.42;;;11.70;99.90;;;;;;5059062;28;20048;-52
2022/10/29 01:02:49;;;;;;;4.70;2.47;;;11.60;99.90;;;;;;5060170;28;20068;-50
2022/10/29 01:05:22;;;;;;;14.25;3.47;;;11.60;99.90;;;;;;5050902;28;20037;-50
2022/10/29 01:07:48;;;;;;;9.50;3.13;;;11.50;99.90;;;;;;5050513;28;20037;-51
2022/10/29 01:10:21;;;;;;;7.78;3.05;;;11.50;99.90;;;;;;5050519;28;20045;-52
2022/10/29 01:13:29;;;;;;;9.18;3.03;;;11.40;99.90;;;;;;5070521;28;20485;-50
2022/10/29 01:16:18;;;;;;;16.55;3.42;;;11.40;99.90;;;;;;4989158;28;20054;-51
2022/10/29 01:19:15;;;;;;;8.38;2.85;;;11.40;99.90;;;;;;4982866;28;20137;-51
2022/10/29 01:21:54;;;;;;;17.05;3.85;;;11.40;99.90;;;;;;5014869;28;20053;-50
2022/10/29 01:24:43;;;;;;;10.40;3.92;;;11.40;99.90;;;;;;5050528;28;20041;-49
2022/10/29 01:27:47;;;;;;;10.80;3.40;;;11.30;99.90;;;;;;5017437;28;20494;-48
2022/10/29 01:30:42;;;;;;;7.05;2.85;;;11.30;99.90;;;;;;5020035;28;20069;-51
2022/10/29 01:33:22;;;;;;;10.60;3.83;;;11.20;99.90;;;;;;5001336;28;20129;-49
2022/10/29 01:36:08;;;;;;;10.57;3.35;;;11.20;99.90;;;;;;5016594;28;20457;-48
2022/10/29 01:39:20;;;;;;;11.73;2.92;;;11.20;99.90;;;;;;5030841;28;20145;-49
2022/10/29 01:42:01;;;;;;;10.82;3.92;;;11.20;99.90;;;;;;5030476;28;20108;-48
2022/10/29 01:44:59;;;;;;;8.35;3.30;;;11.30;99.90;;;;;;5042108;28;20033;-48
2022/10/29 01:47:30;;;;;;;11.65;3.20;;;11.30;99.90;;;;;;5050935;28;20461;-49
2022/10/29 01:50:01;;;;;;;17.85;3.53;;;11.30;99.90;;;;;;5042259;28;20069;-49
2022/10/29 01:52:32;;;;;;;8.93;2.95;;;11.30;99.90;;;;;;5030578;28;20037;-48
2022/10/29 01:54:59;;;;;;;12.38;3.80;;;11.30;99.90;;;;;;5029992;28;20041;-48
2022/10/29 01:57:31;;;;;;;5.50;2.80;;;11.30;99.90;;;;;;5031044;28;20462;-50
2022/10/29 02:00:11;;;;;;;13.30;3.17;;;11.30;99.90;;;;;;5038691;28;20058;-48
2022/10/29 02:02:53;;;;;;;11.13;3.47;;;11.30;99.90;;;;;;4996251;28;20042;-49
2022/10/29 02:05:38;;;;;;;7.30;2.88;;;11.30;99.90;;;;;;5030466;28;20045;-51
2022/10/29 02:08:29;;;;;;;11.60;3.75;;;11.30;99.90;;;;;;5029562;28;20080;-48
2022/10/29 02:11:06;;;;;;;7.15;3.33;;;11.30;99.90;;;;;;5030707;28;20038;-49
2022/10/29 02:13:40;;;;;;;14.73;4.20;;;11.30;99.90;;;;;;5029527;28;20068;-48
2022/10/29 02:16:09;;;;;;;9.85;3.10;;;11.30;99.90;;;;;;5030658;28;20061;-49
2022/10/29 02:18:41;;;;;;;11.02;3.40;;;11.30;99.90;;;;;;5038377;28;20478;-48
2022/10/29 02:21:08;;;;;;;6.60;3.22;;;11.30;99.90;;;;;;5050380;28;20049;-49
2022/10/29 02:23:34;;;;;;;16.02;3.35;;;11.30;99.90;;;;;;5054163;28;20079;-48
2022/10/29 02:26:01;;;;;;;11.38;3.40;;;11.20;99.90;;;;;;5045332;28;20056;-48
2022/10/29 02:28:28;;;;;;;6.43;2.80;;;11.20;99.90;;;;;;5045613;28;20072;-49
2022/10/29 02:30:54;;;;;;;9.48;3.47;;;11.50;99.90;;;;;;5048159;28;20106;-49
2022/10/29 02:33:21;;;;;;;10.27;3.50;;;11.20;99.90;;;;;;5033917;28;20068;-49
2022/10/29 02:35:48;;;;;;;9.90;3.15;;;11.10;99.90;;;;;;5033376;28;20081;-51
2022/10/29 02:38:14;;;;;;;14.68;3.50;;;11.10;99.90;;;;;;5033128;28;20082;-48
2022/10/29 02:40:41;;;;;;;5.80;3.08;;;11.10;99.90;;;;;;5034081;28;20057;-48
2022/10/29 02:43:08;;;;;;;11.15;3.50;;;11.20;99.90;;;;;;5033067;28;20069;-48
2022/10/29 02:45:35;;;;;;;13.45;3.80;;;11.20;99.90;;;;;;5033705;28;20121;-48
2022/10/29 02:48:02;;;;;;;12.00;3.33;;;11.20;99.90;;;;;;5031978;28;20034;-49
2022/10/29 02:50:28;;;;;;;11.73;3.33;;;11.10;99.90;;;;;;5033409;28;20095;-50
2022/10/29 02:52:55;;;;;;;12.15;2.85;;;11.10;99.90;;;;;;5014713;28;20121;-49
2022/10/29 02:55:22;;;;;;;10.90;3.05;;;11.10;99.90;;;;;;5029442;28;20077;-48
2022/10/29 02:57:48;;;;;;;9.43;3.33;;;11.00;99.90;;;;;;5033790;28;20546;-48
2022/10/29 03:00:15;;;;;;;13.65;3.42;;;11.00;99.90;;;;;;5033660;28;20108;-48
2022/10/29 03:02:42;;;;;;;9.02;3.00;;;11.00;99.90;;;;;;5033736;28;20080;-50
2022/10/29 03:05:09;;;;;;;10.07;2.50;;;11.00;99.90;;;;;;5040975;28;20068;-48
2022/10/29 03:07:37;;;;;;;8.23;3.00;;;11.00;99.90;;;;;;5038151;28;20069;-49
2022/10/29 03:10:05;;;;;;;10.38;2.78;;;10.90;99.90;;;;;;5032118;28;20041;-48
2022/10/29 03:12:33;;;;;;;14.75;3.25;;;10.90;99.90;;;;;;5032220;28;20049;-49
2022/10/29 03:15:00;;;;;;;12.07;4.20;;;10.90;99.90;;;;;;5032607;28;20080;-48
2022/10/29 03:17:26;;;;;;;10.38;3.40;;;10.90;99.90;;;;;;5031968;28;20104;-48
2022/10/29 03:19:53;;;;;;;9.45;3.65;;;10.90;99.90;;;;;;5033420;28;20091;-50
2022/10/29 03:22:20;;;;;;;8.60;3.10;;;10.90;99.90;;;;;;5015304;28;20502;-49
2022/10/29 03:24:46;;;;;;;17.55;4.50;;;11.10;99.90;;;;;;5031643;28;20065;-48
2022/10/29 03:27:13;;;;;;;9.50;3.42;;;10.90;99.90;;;;;;5032967;28;20045;-48
2022/10/29 03:29:40;;;;;;;8.32;3.10;;;10.90;99.90;;;;;;5032574;28;20041;-50
2022/10/29 03:32:06;;;;;;;8.80;3.15;;;10.90;99.90;;;;;;5036230;28;20064;-49
2022/10/29 03:34:33;;;;;;;8.65;2.70;;;10.90;99.90;;;;;;5040346;28;20510;-49
2022/10/29 03:37:00;;;;;;;11.52;3.00;;;10.90;99.90;;;;;;5032454;28;20115;-51
2022/10/29 03:39:26;;;;;;;11.60;2.90;;;10.80;99.90;;;;;;5032910;28;20084;-49
2022/10/29 03:41:53;;;;;;;13.48;3.75;;;10.80;99.90;;;;;;5032700;28;20041;-49
2022/10/29 03:44:20;;;;;;;6.70;3.75;;;10.60;99.90;;;;;;5030219;28;20108;-48
2022/10/29 03:46:46;;;;;;;11.30;4.07;;;10.60;99.90;;;;;;5026741;28;20037;-48
2022/10/29 03:49:13;;;;;;;11.05;3.10;;;10.60;99.90;;;;;;5031990;28;20392;-48
2022/10/29 03:51:40;;;;;;;7.40;2.75;;;10.60;99.90;;;;;;5032773;28;20100;-49
2022/10/29 03:54:07;;;;;;;9.40;3.40;;;10.60;99.90;;;;;;5031370;28;20103;-49
2022/10/29 03:56:33;;;;;;;8.27;2.88;;;10.60;99.90;;;;;;5031609;28;20129;-49
2022/10/29 03:59:00;;;;;;;8.00;3.17;;;10.50;99.90;;;;;;5031331;28;20073;-48
2022/10/29 04:01:27;;;;;;;10.35;2.60;;;10.40;99.90;;;;;;5031708;28;20107;-48
2022/10/29 04:03:54;;;;;;;6.65;2.90;;;10.20;99.90;;;;;;5032076;28;20417;-51
2022/10/29 04:06:20;;;;;;;9.43;2.65;;;10.10;99.90;;;;;;5033800;28;20037;-49
2022/10/29 04:08:47;;;;;;;10.40;2.25;;;10.00;99.90;;;;;;5040699;28;20099;-48
2022/10/29 04:11:14;;;;;;;7.80;2.28;;;10.00;99.90;;;;;;5032323;28;20065;-49
2022/10/29 04:13:40;;;;;;;7.45;2.65;;;9.90;99.90;;;;;;5030509;28;20383;-48
2022/10/29 04:16:07;;;;;;;10.35;2.50;;;9.80;99.90;;;;;;5031994;28;20107;-48
2022/10/29 04:18:34;;;;;;;13.13;2.85;;;9.70;99.90;;;;;;5030845;28;20041;-48
2022/10/29 04:21:01;;;;;;;6.60;2.25;;;9.70;99.90;;;;;;5032023;28;20045;-51
2022/10/29 04:23:49;;;;;;;9.07;2.67;;;9.60;99.90;;;;;;5034256;28;20038;-48
2022/10/29 04:26:35;;;;;;;11.55;2.35;;;9.60;99.90;;;;;;5012380;28;20144;-49
2022/10/29 04:29:22;;;;;;;10.93;2.78;;;9.60;99.90;;;;;;5020049;28;20144;-48
2022/10/29 04:31:49;;;;;;;8.60;2.60;;;9.60;99.90;;;;;;5043815;28;20045;-49
2022/10/29 04:34:16;;;;;;;10.65;2.80;;;9.50;99.90;;;;;;5051561;28;20077;-51
2022/10/29 04:36:42;;;;;;;6.35;3.13;;;9.50;99.90;;;;;;5032265;28;20111;-48
2022/10/29 04:39:09;;;;;;;8.85;3.08;;;9.40;99.90;;;;;;5031709;28;20073;-48
2022/10/29 04:41:36;;;;;;;11.80;2.55;;;9.40;99.90;;;;;;5042730;28;20358;-48
2022/10/29 04:44:03;;;;;;;12.63;3.58;;;9.40;99.90;;;;;;5050026;28;20041;-48
2022/10/29 04:46:29;;;;;;;9.35;2.97;;;9.40;99.90;;;;;;5051321;28;20049;-49
2022/10/29 04:48:56;;;;;;;8.48;3.42;;;9.30;99.90;;;;;;5051637;28;20068;-48
2022/10/29 04:51:25;;;;;;;14.70;3.65;;;9.40;99.90;;;;;;5043233;28;20434;-51
2022/10/29 04:53:52;;;;;;;13.00;3.50;;;9.40;99.90;;;;;;5045775;28;20111;-48
2022/10/29 04:56:19;;;;;;;11.40;3.42;;;9.50;99.90;;;;;;5051743;28;20096;-48
2022/10/29 04:58:45;;;;;;;16.30;3.85;;;9.50;99.90;;;;;;5045802;28;20042;-48
2022/10/29 05:01:12;;;;;;;11.52;4.20;;;9.50;99.90;;;;;;5038755;28;20471;-48
2022/10/29 05:03:39;;;;;;;15.38;3.60;;;9.50;99.90;;;;;;5030910;28;20041;-48
2022/10/29 05:06:06;;;;;;;12.13;3.80;;;9.50;99.90;;;;;;5038687;28;20114;-49
2022/10/29 05:08:33;;;;;;;7.95;3.30;;;9.50;99.90;;;;;;5031381;28;20536;-48
2022/10/29 05:11:02;;;;;;;11.60;3.88;;;9.50;99.90;;;;;;5031449;28;20091;-48
2022/10/29 05:13:30;;;;;;;10.73;3.50;;;9.40;99.90;;;;;;5030104;28;20800;-50
2022/10/29 05:15:57;;;;;;;10.77;3.88;;;9.40;99.90;;;;;;5030459;28;20449;-50
2022/10/29 05:18:24;;;;;;;14.57;3.75;;;9.30;99.90;;;;;;5024340;28;20033;-49
2022/10/29 05:20:54;;;;;;;13.90;3.90;;;9.30;99.90;;;;;;5028479;28;20057;-48
2022/10/29 05:23:21;;;;;;;14.27;5.00;;;9.50;99.90;;;;;;5028868;28;20087;-49
2022/10/29 05:25:50;;;;;;;11.63;4.50;;;9.60;99.90;;;;;;5029198;28;20552;-48
2022/10/29 05:28:19;;;;;;;8.30;4.05;;;9.70;99.90;;;;;;5032180;28;20041;-48
2022/10/29 05:30:48;;;;;;;13.73;4.35;;;9.80;99.90;;;;;;5029332;28;20045;-49
2022/10/29 05:33:20;;;;;;;14.77;4.35;;;9.90;99.90;;;;;;5030784;28;20111;-48
2022/10/29 05:35:47;;;;;;;14.73;3.70;;;10.00;99.90;;;;;;5029942;28;20045;-48
2022/10/29 05:38:15;;;;;;;11.70;3.22;;;10.10;99.90;;;;;;5030740;28;20104;-50
2022/10/29 05:40:43;;;;;;;9.18;3.08;;;10.00;99.90;;;;;;5029811;28;20076;-48
2022/10/29 05:43:15;;;;;;;10.70;2.75;;;10.00;99.90;;;;;;5030294;28;20048;-49
2022/10/29 05:45:42;;;;;;;6.10;2.53;;;9.90;99.90;;;;;;5029567;28;20046;-48
2022/10/29 05:48:10;;;;;;;9.15;2.33;;;9.90;99.90;;;;;;5030601;28;20037;-50
2022/10/29 05:50:37;;;;;;;14.13;3.15;;;9.80;99.90;;;;;;5042364;28;20049;-48
2022/10/29 05:53:06;;;;;;;15.27;3.88;;;9.70;99.90;;;;;;5029624;28;20496;-48
2022/10/29 05:55:34;;;;;;;11.48;4.53;;;9.80;99.90;;;;;;5031482;28;20095;-49
2022/10/29 05:58:03;;;;;;;10.45;3.65;;;9.90;99.90;;;;;;5034784;28;20471;-48
2022/10/29 06:00:32;;;;;;;15.60;3.95;;;10.00;99.90;;;;;;5033869;28;20033;-49
2022/10/29 06:02:59;;;;;;;9.80;3.78;;;10.00;99.90;;;;;;5034878;28;20104;-49
2022/10/29 06:05:26;;;;;;;;;;;10.20;99.90;;;;;;5033272;28;20100;-48
2022/10/29 06:07:57;;;;;;;11.68;3.22;;;10.20;99.90;;;;;;5034832;28;19948;-49
2022/10/29 06:10:26;;;;;;;10.27;3.53;;;10.30;99.90;;;;;;5034231;28;20061;-48
2022/10/29 06:12:53;;;;;;;13.18;3.78;;;10.40;99.90;;;;;;5033642;28;20044;-49
2022/10/29 06:15:20;;;;;;;18.50;5.13;;;10.60;99.90;;;;;;5034024;28;20116;-48
2022/10/29 06:17:47;;;;;;;13.70;4.93;;;10.60;99.90;;;;;;5034004;28;20041;-49
2022/10/29 06:20:15;;;;;;;11.43;4.40;;;10.70;99.90;;;;;;5033332;28;20114;-48
2022/10/29 06:22:42;;;;;;;11.80;3.60;;;10.80;99.90;;;;;;5034291;28;20103;-49
2022/10/29 06:25:09;;;;;;;12.90;4.22;;;10.90;99.90;;;;;;5033721;28;20069;-49
2022/10/29 06:27:36;;;;;;;16.67;3.33;;;11.00;99.90;;;;;;5032350;28;20038;-51
2022/10/29 06:30:04;;;;;;;10.20;3.55;;;11.00;99.90;;;;;;5049285;28;20069;-49
2022/10/29 06:32:31;;;;;;;10.18;3.20;;;11.00;99.90;;;;;;5033052;28;20133;-48
2022/10/29 06:34:57;;;;;;;11.40;3.20;;;11.10;99.90;;;;;;5033634;28;20557;-51
2022/10/29 06:37:24;;;;;;;13.05;3.65;;;11.20;99.90;;;;;;5032934;28;20120;-52
2022/10/29 06:39:51;;;;;;;11.38;3.35;;;11.20;99.90;;;;;;5033989;28;20505;-51
2022/10/29 06:42:17;;;;;;;16.73;3.70;;;11.30;99.90;;;;;;5032310;28;20473;-48
2022/10/29 06:44:44;;;;;;;11.77;3.80;;;11.30;99.90;;;;;;5032874;28;20092;-51
2022/10/29 06:47:11;;;;;;;12.25;4.10;;;11.30;99.90;;;;;;5032744;28;20042;-49
2022/10/29 06:49:37;;;;;;;9.75;3.83;;;11.30;99.90;;;;;;5033343;28;20041;-49
2022/10/29 06:52:04;;;;;;;8.93;3.80;;;11.30;99.90;;;;;;5031451;28;20445;-49
2022/10/29 06:54:31;;;;;;;15.45;4.03;;;11.30;99.90;;;;;;5040451;28;20498;-51
2022/10/29 06:56:58;;;;;;;10.57;3.88;;;11.30;99.90;;;;;;5028631;28;20057;-49
2022/10/29 06:59:24;;;;;;;17.80;4.38;;;11.20;99.90;;;;;;5025641;28;20072;-48
2022/10/29 07:01:51;;;;;;;11.40;4.47;;;11.20;99.90;;;;;;5003061;28;20061;-48
2022/10/29 07:04:19;;;;;;;8.32;3.45;;;11.20;99.90;;;;;;5030880;28;20457;-49
2022/10/29 07:06:46;;;;;;;9.73;3.80;;;11.20;99.90;;;;;;5031717;28;20413;-49
2022/10/29 07:09:13;;;;;;;9.63;3.92;;;11.30;99.90;;;;;;5030775;28;20065;-48
2022/10/29 07:11:39;;;;;;;11.27;3.88;;;11.40;99.90;;;;;;5033118;28;20041;-49
2022/10/29 07:14:08;;;;;;;11.07;3.40;;;11.50;99.90;;;;;;5031784;28;20064;-49
2022/10/29 07:16:35;;;;;;;13.85;3.47;;;11.50;99.90;;;;;;5030564;28;20453;-48
2022/10/29 07:19:03;;;;;;;;;;;11.60;99.90;;;;;;5033512;28;20049;-49
2022/10/29 07:21:29;;;;;;;6.32;3.03;;;11.60;99.90;;;;;;5032434;28;19936;-50
2022/10/29 07:23:56;;;;;;;11.77;3.80;;;11.60;99.90;;;;;;5033137;28;20065;-49
2022/10/29 07:26:23;;;;;;;12.27;3.35;;;11.80;99.90;;;;;;5071717;22;20036;-48
2022/10/29 07:28:49;;;;;;;10.57;3.65;;;11.70;99.90;;;;;;5091662;28;20459;-47
2022/10/29 07:31:16;;;;;;;8.85;3.78;;;11.70;99.90;;;;;;5084657;28;20063;-47
2022/10/29 07:33:43;;;;;;;17.83;4.00;;;11.80;99.90;;;;;;5093005;28;20070;-48
2022/10/29 07:36:10;;;;;;;14.43;3.38;;;11.80;99.90;;;;;;5092160;28;20072;-49
2022/10/29 07:38:36;;;;;;;10.85;3.38;;;11.90;99.90;;;;;;5091298;28;20063;-47
2022/10/29 07:41:03;;;;;;;13.23;4.03;;;12.00;99.90;;;;;;5089261;28;20082;-48
2022/10/29 07:43:30;;;;;;;10.35;3.35;;;12.20;99.90;;;;;;5080446;28;20428;-49
2022/10/29 07:45:57;;;;;;;7.60;3.25;;;12.30;99.90;;;;;;5086388;28;20059;-48
2022/10/29 07:48:23;;;;;;;10.88;3.15;;;12.30;99.90;;;;;;5091900;28;20036;-46
2022/10/29 07:50:50;;;;;;;9.65;3.75;;;12.30;99.90;;;;;;5083514;28;20071;-49
2022/10/29 07:53:17;;;;;;;10.70;3.72;;;12.40;99.90;;;;;;5081432;28;20525;-48
2022/10/29 07:55:50;;;;;;;20.25;4.22;;;12.60;99.90;;;;;;5095256;28;20032;-49
2022/10/29 07:58:16;;;;;;;11.85;4.03;;;12.70;99.90;;;;;;5081878;28;20033;-50
2022/10/29 08:00:43;;;;;;;9.98;3.85;;;12.70;99.90;;;;;;5083835;28;20068;-48
2022/10/29 08:03:11;;;;;;;11.65;3.35;;;12.60;99.90;;;;;;5086870;28;20036;-46
2022/10/29 08:05:39;;;;;;;14.85;3.83;;;12.80;99.90;;;;;;5081263;28;20066;-47
2022/10/29 08:08:08;;;;;;;19.00;4.00;;;13.00;99.90;;;;;;5086569;28;20066;-47
2022/10/29 08:10:35;;;;;;;18.55;4.10;;;13.10;99.90;;;;;;5084184;28;20101;-49
2022/10/29 08:13:04;;;;;;;13.75;3.67;;;13.20;99.90;;;;;;5090618;28;20044;-49
2022/10/29 08:15:32;;;;;;;11.68;3.70;;;13.40;99.90;;;;;;5090194;28;20051;-48
2022/10/29 08:17:59;;;;;;;12.75;3.72;;;13.60;99.90;;;;;;5092165;28;20078;-47
2022/10/29 08:20:27;;;;;;;12.77;4.10;;;13.70;99.90;;;;;;5083372;28;20040;-47
2022/10/29 08:22:54;;;;;;;10.05;3.47;;;13.90;99.90;;;;;;5090826;28;20040;-47
2022/10/29 08:25:21;;;;;;;12.80;3.63;;;14.10;99.90;;;;;;5091024;28;20040;-47
2022/10/29 08:28:02;;;;;;;18.08;3.67;;;14.30;99.90;;;;;;5091153;28;20469;-48
2022/10/29 08:30:29;;;;;;;13.50;3.58;;;14.50;99.90;;;;;;5092045;28;20072;-47
2022/10/29 08:32:56;;;;;;;6.53;2.70;;;14.80;99.90;;;;;;5090105;28;20076;-46
2022/10/29 08:35:24;;;;;;;12.45;3.33;;;14.80;99.90;;;;;;5090483;28;20399;-48
2022/10/29 08:37:51;;;;;;;9.93;3.60;;;14.90;99.90;;;;;;5080685;28;20040;-47
2022/10/29 08:40:33;;;;;;;9.68;3.38;;;15.00;99.90;;;;;;5085666;28;20041;-49
2022/10/29 08:43:22;;;;;;;9.75;2.85;;;15.20;99.90;;;;;;5088083;28;20066;-47
2022/10/29 08:45:51;;;;;;;8.48;3.17;;;15.30;99.90;;;;;;5091254;28;20463;-48
2022/10/29 08:48:28;;;;;;;14.48;3.50;;;15.40;99.90;;;;;;5083773;28;20036;-51
2022/10/29 08:51:27;;;;;;;11.43;3.80;;;15.50;99.90;;;;;;5091717;28;20032;-47
2022/10/29 08:53:56;;;;;;;10.63;3.10;;;15.40;99.90;;;;;;5091243;28;20040;-47
2022/10/29 08:56:56;;;;;;;7.88;3.30;;;15.50;99.90;;;;;;5091438;28;20608;-49
2022/10/29 08:59:24;;;;;;;17.45;3.38;;;15.60;99.90;;;;;;5090391;28;20446;-47
2022/10/29 09:01:52;;;;;;;8.02;3.08;;;15.60;99.90;;;;;;5091471;28;20039;-49
2022/10/29 09:04:24;;;;;;;8.60;2.67;;;15.70;99.90;;;;;;5085265;28;20041;-47
2022/10/29 09:06:56;;;;;;;12.02;3.80;;;15.80;99.90;;;;;;5085030;28;20045;-48
2022/10/29 09:09:50;;;;;;;11.40;3.50;;;15.80;99.90;;;;;;5089846;28;20040;-47
2022/10/29 09:12:20;;;;;;;11.40;3.30;;;15.80;99.90;;;;;;5087925;28;20068;-47
2022/10/29 09:15:08;;;;;;;8.07;3.10;;;16.00;99.90;;;;;;5077780;28;20082;-53
2022/10/29 09:17:42;;;;;;;;;;;16.10;99.90;;;;;;5087727;28;20045;-50
2022/10/29 09:20:36;;;;;;;8.45;3.03;;;16.20;99.90;;;;;;5090254;28;20022;-48
2022/10/29 09:23:21;;;;;;;12.95;2.90;;;16.20;99.90;;;;;;5087707;28;20115;-49
2022/10/29 09:26:03;;;;;;;10.77;2.75;;;16.30;99.90;;;;;;5088024;28;20036;-50
2022/10/29 09:28:48;;;;;;;11.82;4.05;;;16.30;99.90;;;;;;5090127;28;20036;-53
2022/10/29 09:31:15;;;;;;;10.90;2.95;;;16.40;99.90;;;;;;5090919;28;20128;-52
2022/10/29 09:33:49;;;;;;;10.65;3.28;;;16.50;99.90;;;;;;5086878;28;20404;-48
2022/10/29 09:36:23;;;;;;;10.85;3.47;;;16.70;99.90;;;;;;5085298;28;20036;-50
2022/10/29 09:39:01;;;;;;;16.83;3.55;;;16.80;99.90;;;;;;5061374;28;20040;-50
2022/10/29 09:41:30;;;;;;;;;;;17.00;99.90;;;;;;5092330;28;20062;-49
2022/10/29 09:44:25;;;;;;;12.07;3.85;;;17.00;99.90;;;;;;5088598;28;19920;-48
2022/10/29 09:47:25;;;;;;;9.50;3.00;;;16.90;99.90;;;;;;5088723;28;20129;-48
2022/10/29 09:50:05;;;;;;;11.75;2.95;;;16.90;99.90;;;;;;5086707;28;20090;-49
2022/10/29 09:52:38;;;;;;;12.43;3.13;;;17.00;99.90;;;;;;5063064;28;20066;-47
2022/10/29 09:55:09;;;;;;;13.30;3.45;;;17.20;99.90;;;;;;5071362;28;20055;-49
2022/10/29 09:57:39;;;;;;;17.50;3.65;;;17.50;99.90;;;;;;5079797;28;20118;-50
2022/10/29 10:00:17;;;;;;;11.02;3.40;;;17.70;99.90;;;;;;5076778;28;20037;-51
2022/10/29 10:02:50;;;;;;;10.30;3.03;;;17.80;99.90;;;;;;5086545;28;20028;-49
2022/10/29 10:05:29;;;;;;;9.75;3.25;;;18.10;99.90;;;;;;5083509;28;20047;-50
2022/10/29 10:08:11;;;;;;;12.63;4.43;;;18.30;99.90;;;;;;5078640;28;20459;-50
2022/10/29 10:11:00;;;;;;;13.23;3.42;;;18.40;99.90;;;;;;5082893;28;20066;-52
2022/10/29 10:13:30;;;;;;;10.25;3.20;;;18.40;99.90;;;;;;5083350;28;20071;-51
2022/10/29 10:15:59;;;;;;;7.97;2.92;;;18.60;99.90;;;;;;5083178;28;20036;-49
2022/10/29 10:18:40;;;;;;;14.52;3.35;;;18.80;99.90;;;;;;5089950;28;20051;-51
2022/10/29 10:21:13;;;;;;;12.82;3.88;;;18.80;99.90;;;;;;5078005;28;20036;-48
2022/10/29 10:23:51;;;;;;;13.23;3.30;;;18.90;99.90;;;;;;5079002;28;20044;-51
2022/10/29 10:26:35;;;;;;;11.20;2.95;;;18.90;99.90;;;;;;5089880;28;20040;-49
2022/10/29 10:29:04;;;;;;;12.15;3.53;;;18.80;99.90;;;;;;5081897;28;20116;-48
2022/10/29 10:31:31;;;;;;;9.60;2.90;;;18.80;99.90;;;;;;5071001;28;20123;-48
2022/10/29 10:33:58;;;;;;;19.92;3.95;;;18.90;99.90;;;;;;5080326;28;20040;-48
2022/10/29 10:36:27;;;;;;;10.68;2.88;;;19.00;99.90;;;;;;5090757;28;20162;-48
2022/10/29 10:38:57;;;;;;;12.25;2.90;;;18.90;99.90;;;;;;5090485;28;20097;-49
2022/10/29 10:41:31;;;;;;;10.68;2.92;;;19.00;99.90;;;;;;5088536;28;20489;-51
2022/10/29 10:44:00;;;;;;;14.38;3.03;;;19.00;99.90;;;;;;5081400;28;20044;-48
2022/10/29 10:46:37;;;;;;;11.48;3.00;;;19.10;99.90;;;;;;5073622;28;20044;-50
2022/10/29 10:49:11;;;;;;;10.13;2.88;;;19.20;99.90;;;;;;5073953;28;20094;-52
2022/10/29 10:51:42;;;;;;;12.57;3.22;;;19.40;99.90;;;;;;5076944;28;20044;-49
2022/10/29 10:54:29;;;;;;;13.95;2.97;;;19.40;99.90;;;;;;5090458;28;20036;-49
2022/10/29 10:57:16;;;;;;;13.60;3.15;;;19.50;99.90;;;;;;5093747;28;20098;-49
2022/10/29 10:59:48;;;;;;;8.80;3.05;;;19.60;99.90;;;;;;5086800;28;20082;-53
2022/10/29 11:02:24;;;;;;;18.80;3.05;;;19.40;99.90;;;;;;5074664;28;20040;-50
2022/10/29 11:05:05;;;;;;;11.88;3.10;;;19.40;99.90;;;;;;5089089;28;20123;-49
2022/10/29 11:07:36;;;;;;;9.25;2.85;;;19.20;99.90;;;;;;5086810;28;20040;-48
2022/10/29 11:10:05;;;;;;;9.50;3.08;;;19.20;99.90;;;;;;5085952;28;20090;-51
2022/10/29 11:12:40;;;;;;;6.35;2.92;;;19.10;99.90;;;;;;5088860;28;20040;-51
2022/10/29 11:15:32;;;;;;;12.98;2.60;;;19.00;99.90;;;;;;5090538;28;20036;-51
2022/10/29 11:18:24;;;;;;;10.68;2.85;;;18.70;99.90;;;;;;5052413;28;20571;-48
2022/10/29 11:21:23;;;;;;;13.30;3.22;;;18.70;99.90;;;;;;5075030;28;20104;-51
2022/10/29 11:24:02;;;;;;;14.00;3.20;;;18.80;99.90;;;;;;5096103;28;20450;-52
2022/10/29 11:26:33;;;;;;;14.63;2.92;;;19.00;99.90;;;;;;5084225;28;20033;-49
2022/10/29 11:29:19;;;;;;;11.07;2.90;;;19.20;99.90;;;;;;5081852;28;20098;-49
2022/10/29 11:32:05;;;;;;;11.68;2.65;;;19.30;99.90;;;;;;5096671;28;20096;-50
2022/10/29 11:34:50;;;;;;;11.10;3.33;;;19.50;99.90;;;;;;5074437;28;20413;-48
2022/10/29 11:37:40;;;;;;;17.63;3.03;;;19.70;99.90;;;;;;5093078;28;20037;-50
2022/10/29 11:40:36;;;;;;;16.08;3.83;;;19.80;99.90;;;;;;5086551;28;20081;-50
2022/10/29 11:43:11;;;;;;;10.25;2.97;;;20.00;99.90;;;;;;5085761;28;20071;-48
2022/10/29 11:45:52;;;;;;;7.55;2.42;;;20.10;99.90;;;;;;5078043;28;20036;-48
2022/10/29 11:48:22;;;;;;;13.52;2.88;;;20.20;99.90;;;;;;5086007;28;20060;-52
2022/10/29 11:51:12;;;;;;;13.85;3.15;;;20.30;99.90;;;;;;5088623;28;20488;-49
2022/10/29 11:53:56;;;;;;;14.73;3.80;;;20.40;99.90;;;;;;5085268;28;20062;-49
2022/10/29 11:56:35;;;;;;;11.32;3.15;;;20.60;99.90;;;;;;5087393;28;20472;-50
2022/10/29 11:59:32;;;;;;;8.23;2.67;;;20.80;99.90;;;;;;5090838;28;20040;-47
2022/10/29 12:02:24;;;;;;;11.25;3.08;;;21.00;99.90;;;;;;5085010;28;20036;-50
2022/10/29 12:05:13;;;;;;;13.77;2.58;;;21.10;99.90;;;;;;5085517;28;20041;-52
2022/10/29 12:07:48;;;;;;;9.90;2.45;;;21.30;99.90;;;;;;5081729;28;20105;-48
2022/10/29 12:10:37;;;;;;;7.40;2.30;;;21.30;99.90;;;;;;5085976;28;20108;-50
2022/10/29 12:13:03;;;;;;;;;;;21.20;99.90;;;;;;5090863;28;20027;-47
2022/10/29 12:15:49;;;;;;;11.32;2.47;;;21.20;99.90;;;;;;5089129;28;20525;-51
2022/10/29 12:18:32;;;;;;;9.80;2.53;;;21.10;99.90;;;;;;5082639;28;20032;-50
2022/10/29 12:21:21;;;;;;;13.32;3.30;;;21.10;99.90;;;;;;5072748;28;20560;-50
2022/10/29 12:24:01;;;;;;;12.13;3.00;;;21.20;99.90;;;;;;5078493;28;20109;-50
2022/10/29 12:26:36;;;;;;;16.50;2.55;;;21.10;99.90;;;;;;5075181;28;20036;-50
2022/10/29 12:29:23;;;;;;;18.73;3.05;;;21.00;99.90;;;;;;5055377;28;20389;-49
2022/10/29 12:32:12;;;;;;;11.23;2.95;;;21.00;99.90;;;;;;5075560;28;20101;-51
2022/10/29 12:34:46;;;;;;;7.82;2.22;;;20.80;99.90;;;;;;5081542;28;20031;-50
2022/10/29 12:37:47;;;;;;;12.82;2.67;;;20.70;99.90;;;;;;5078508;28;20040;-48
2022/10/29 12:40:24;;;;;;;9.18;2.55;;;20.60;99.90;;;;;;5088649;28;20032;-48
2022/10/29 12:42:52;;;;;;;9.57;3.08;;;20.50;99.90;;;;;;5082878;28;20053;-48
2022/10/29 12:45:40;;;;;;;20.17;3.35;;;20.60;99.90;;;;;;5091198;28;20036;-48
2022/10/29 12:48:39;;;;;;;12.35;2.83;;;20.70;99.90;;;;;;5070694;28;20060;-50
2022/10/29 12:51:18;;;;;;;10.57;3.17;;;20.90;99.90;;;;;;5084992;28;20028;-48
2022/10/29 12:54:13;;;;;;;17.88;3.00;;;21.10;99.90;;;;;;5084073;28;20040;-49
2022/10/29 12:56:40;;;;;;;12.75;2.95;;;21.00;99.90;;;;;;5088673;28;20073;-51
2022/10/29 12:59:33;;;;;;;11.35;2.90;;;21.10;99.90;;;;;;5086187;28;20040;-50
2022/10/29 13:02:20;;;;;;;9.60;2.75;;;21.20;99.90;;;;;;5083850;28;20422;-48
2022/10/29 13:05:05;;;;;;;13.32;3.47;;;21.20;99.90;;;;;;5084286;28;20036;-48
2022/10/29 13:07:33;;;;;;;9.38;2.85;;;21.30;99.90;;;;;;5083277;28;20400;-48
2022/10/29 13:10:21;;;;;;;12.52;3.00;;;21.30;99.90;;;;;;5088641;28;20554;-50
2022/10/29 13:12:56;;;;;;;11.27;2.80;;;21.30;99.90;;;;;;5085582;28;20044;-50